Map

Track Data

SID SEASON NUMBER BASIN SUBBASIN NAME ISO_TIME NATURE LAT LON WMO_WIND WMO_PRES WMO_AGENCY TRACK_TYPE DIST2LAND LANDFALL IFLAG USA_AGENCY USA_ATCF_ID USA_LAT USA_LON USA_RECORD USA_STATUS USA_WIND USA_PRES USA_SSHS USA_R34_NE USA_R34_SE USA_R34_SW USA_R34_NW USA_R50_NE USA_R50_SE USA_R50_SW USA_R50_NW USA_R64_NE USA_R64_SE USA_R64_SW USA_R64_NW USA_POCI USA_ROCI USA_RMW USA_EYE TOKYO_LAT TOKYO_LON TOKYO_GRADE TOKYO_WIND TOKYO_PRES TOKYO_R50_DIR TOKYO_R50_LONG TOKYO_R50_SHORT TOKYO_R30_DIR TOKYO_R30_LONG TOKYO_R30_SHORT TOKYO_LAND CMA_LAT CMA_LON CMA_CAT CMA_WIND CMA_PRES HKO_LAT HKO_LON HKO_CAT HKO_WIND HKO_PRES NEWDELHI_LAT NEWDELHI_LON NEWDELHI_GRADE NEWDELHI_WIND NEWDELHI_PRES NEWDELHI_CI NEWDELHI_DP NEWDELHI_POCI REUNION_LAT REUNION_LON REUNION_TYPE REUNION_WIND REUNION_PRES REUNION_TNUM REUNION_CI REUNION_RMW REUNION_R34_NE REUNION_R34_SE REUNION_R34_SW REUNION_R34_NW REUNION_R50_NE REUNION_R50_SE REUNION_R50_SW REUNION_R50_NW REUNION_R64_NE REUNION_R64_SE REUNION_R64_SW REUNION_R64_NW BOM_LAT BOM_LON BOM_TYPE BOM_WIND BOM_PRES BOM_TNUM BOM_CI BOM_RMW BOM_R34_NE BOM_R34_SE BOM_R34_SW BOM_R34_NW BOM_R50_NE BOM_R50_SE BOM_R50_SW BOM_R50_NW BOM_R64_NE BOM_R64_SE BOM_R64_SW BOM_R64_NW BOM_ROCI BOM_POCI BOM_EYE BOM_POS_METHOD BOM_PRES_METHOD NADI_LAT NADI_LON NADI_CAT NADI_WIND NADI_PRES WELLINGTON_LAT WELLINGTON_LON WELLINGTON_WIND WELLINGTON_PRES DS824_LAT DS824_LON DS824_STAGE DS824_WIND DS824_PRES TD9636_LAT TD9636_LON TD9636_STAGE TD9636_WIND TD9636_PRES TD9635_LAT TD9635_LON TD9635_WIND TD9635_PRES TD9635_ROCI NEUMANN_LAT NEUMANN_LON NEUMANN_CLASS NEUMANN_WIND NEUMANN_PRES MLC_LAT MLC_LON MLC_CLASS MLC_WIND MLC_PRES USA_GUST BOM_GUST BOM_GUST_PER REUNION_GUST REUNION_GUST_PER USA_SEAHGT USA_SEARAD_NE USA_SEARAD_SE USA_SEARAD_SW USA_SEARAD_NW STORM_SPEED STORM_DIR
1975260N16256 1975 97 EP MM LILY 1975-09-16 12:00:00 TS 16.3000 -104.200 30 hurdat_epa main 235 235 O________OO___ hurdat_epa EP121975 16.3000 -104.200 TD 30 -1 16.3000 -104.200 TC 30 16.3000 -104.200 1 30 8 278
1975260N16256 1975 97 EP MM LILY 1975-09-16 15:00:00 TS 16.3525 -104.611 main 242 242 P________PP___ EP121975 16.3502 -104.615 TD 37 0 16.3502 -104.615 TC 37 16.3617 -104.597 1 32 8 278
1975260N16256 1975 97 EP MM LILY 1975-09-16 18:00:00 TS 16.4037 -104.995 45 hurdat_epa main 265 265 O________OP___ hurdat_epa EP121975 16.4000 -105.000 TS 45 0 16.4000 -105.000 TC 45 16.4184 -104.975 1 35 7 278
1975260N16256 1975 97 EP MM LILY 1975-09-16 21:00:00 TS 16.4531 -105.327 main 277 277 P________PP___ EP121975 16.4499 -105.330 TS 42 0 16.4499 -105.330 TC 42 16.4659 -105.315 1 37 6 279
1975260N16256 1975 97 EP MM LILY 1975-09-17 00:00:00 TS 16.5000 -105.600 40 hurdat_epa main 300 300 O________OO___ hurdat_epa EP121975 16.5000 -105.600 TS 40 0 16.5000 -105.600 TC 40 16.5000 -105.600 2 40 5 282
1975260N16256 1975 97 EP MM LILY 1975-09-17 03:00:00 TS 16.5499 -105.821 main 316 309 P________PP___ EP121975 16.5574 -105.823 TS 40 0 16.5574 -105.823 TC 40 16.5196 -105.817 2 40 4 283
1975260N16256 1975 97 EP MM LILY 1975-09-17 06:00:00 TS 16.5869 -105.998 40 hurdat_epa main 317 317 O________OP___ hurdat_epa EP121975 16.6000 -106.000 TS 40 0 16.6000 -106.000 TC 40 16.5345 -105.988 2 40 3 278
1975260N16256 1975 97 EP MM LILY 1975-09-17 09:00:00 TS 16.5914 -106.148 main 321 321 P________PP___ EP121975 16.6000 -106.150 TS 37 0 16.6000 -106.150 TC 37 16.5572 -106.139 2 40 3 273
1975260N16256 1975 97 EP MM LILY 1975-09-17 12:00:00 TS 16.6000 -106.300 35 hurdat_epa main 331 331 O________OO___ hurdat_epa EP121975 16.6000 -106.300 TS 35 0 16.6000 -106.300 TC 35 16.6000 -106.300 2 40 3 278
1975260N16256 1975 97 EP MM LILY 1975-09-17 15:00:00 TS 16.6343 -106.481 main 342 332 P________PP___ EP121975 16.6275 -106.485 TS 40 0 16.6275 -106.485 TC 40 16.6617 -106.462 2 41 4 286
1975260N16256 1975 97 EP MM LILY 1975-09-17 18:00:00 TS 16.7093 -106.689 45 hurdat_epa main 344 341 O________OP___ hurdat_epa EP121975 16.7000 -106.700 TS 45 0 16.7000 -106.700 TC 45 16.7466 -106.646 2 42 4 296
1975260N16256 1975 97 EP MM LILY 1975-09-17 21:00:00 TS 16.8335 -106.900 main 348 339 P________PP___ EP121975 16.8273 -106.905 TS 45 0 16.8273 -106.905 TC 45 16.8583 -106.881 2 43 6 301
1975260N16256 1975 97 EP MM LILY 1975-09-18 00:00:00 TS 17.0000 -107.200 45 hurdat_epa main 353 353 O________OO___ hurdat_epa EP121975 17.0000 -107.200 TS 45 0 17.0000 -107.200 TC 45 17.0000 -107.200 2 45 8 296
1975260N16256 1975 97 EP MM LILY 1975-09-18 03:00:00 TS 17.1883 -107.650 main 376 376 P________PP___ EP121975 17.1925 -107.655 TS 45 0 17.1925 -107.655 TC 45 17.1715 -107.630 2 47 10 293
1975260N16256 1975 97 EP MM LILY 1975-09-18 06:00:00 TS 17.3941 -108.189 45 hurdat_epa main 399 399 O________OP___ hurdat_epa EP121975 17.4000 -108.200 TS 45 0 17.4000 -108.200 TC 45 17.3703 -108.145 2 50 11 291
1975260N16256 1975 97 EP MM LILY 1975-09-18 09:00:00 TS 17.5967 -108.736 main 428 428 P________PP___ EP121975 17.5999 -108.743 TS 50 0 17.5999 -108.743 TC 50 17.5839 -108.712 2 52 11 291
1975260N16256 1975 97 EP MM LILY 1975-09-18 12:00:00 TS 17.8000 -109.300 55 hurdat_epa main 469 469 O________OO___ hurdat_epa EP121975 17.8000 -109.300 TS 55 0 17.8000 -109.300 TC 55 17.8000 -109.300 2 55 11 291
1975260N16256 1975 97 EP MM LILY 1975-09-18 15:00:00 TS 18.0013 -109.844 main 504 504 P________PP___ EP121975 17.9998 -109.843 TS 60 0 17.9998 -109.843 TC 60 18.0076 -109.849 2 60 11 291
1975260N16256 1975 97 EP MM LILY 1975-09-18 18:00:00 TS 18.2028 -110.403 65 hurdat_epa main 527 510 O________OP___ hurdat_epa EP121975 18.2000 -110.400 HU 65 1 18.2000 -110.400 TC 65 18.2142 -110.413 2 65 12 291
1975260N16256 1975 97 EP MM LILY 1975-09-18 21:00:00 TS 18.4086 -110.987 main 513 502 P________PP___ EP121975 18.4073 -110.985 HU 70 1 18.4073 -110.985 TC 70 18.4137 -110.996 2 70 12 289
1975260N16256 1975 97 EP MM LILY 1975-09-19 00:00:00 TS 18.6000 -111.600 75 hurdat_epa main 508 505 O________OO___ hurdat_epa EP121975 18.6000 -111.600 HU 75 1 18.6000 -111.600 TC 75 18.6000 -111.600 4 75 12 286
1975260N16256 1975 97 EP MM LILY 1975-09-19 03:00:00 TS 18.7570 -112.238 main 512 512 P________PP___ EP121975 18.7573 -112.243 HU 72 1 18.7573 -112.243 TC 72 18.7557 -112.221 4 75 13 284
1975260N16256 1975 97 EP MM LILY 1975-09-19 06:00:00 TS 18.8998 -112.893 70 hurdat_epa main 539 539 O________OP___ hurdat_epa EP121975 18.9000 -112.900 HU 70 1 18.9000 -112.900 TC 70 18.8992 -112.864 4 75 13 283
1975260N16256 1975 97 EP MM LILY 1975-09-19 09:00:00 TS 19.0424 -113.539 main 567 565 P________PP___ EP121975 19.0422 -113.543 HU 72 1 19.0422 -113.543 TC 72 19.0431 -113.524 4 75 13 284
1975260N16256 1975 97 EP MM LILY 1975-09-19 12:00:00 TS 19.2000 -114.200 75 hurdat_epa main 600 600 O________OO___ hurdat_epa EP121975 19.2000 -114.200 HU 75 1 19.2000 -114.200 TC 75 19.2000 -114.200 4 75 13 285
1975260N16256 1975 97 EP MM LILY 1975-09-19 15:00:00 TS 19.3892 -114.890 main 641 641 P________PP___ EP121975 19.3923 -114.893 HU 75 1 19.3923 -114.893 TC 75 19.3769 -114.882 4 73 14 287
1975260N16256 1975 97 EP MM LILY 1975-09-19 18:00:00 TS 19.5938 -115.596 75 hurdat_epa main 673 673 O________OP___ hurdat_epa EP121975 19.6000 -115.600 HU 75 1 19.6000 -115.600 TC 75 19.5691 -115.578 4 72 14 287
1975260N16256 1975 97 EP MM LILY 1975-09-19 21:00:00 TS 19.7891 -116.297 main 697 697 P________PP___ EP121975 19.7922 -116.300 HU 72 1 19.7922 -116.300 TC 72 19.7768 -116.285 4 71 14 287
1975260N16256 1975 97 EP MM LILY 1975-09-20 00:00:00 TS 20.0000 -117.000 70 hurdat_epa main 727 727 O________OO___ hurdat_epa EP121975 20.0000 -117.000 HU 70 1 20.0000 -117.000 TC 70 20.0000 -117.000 4 70 14 289
1975260N16256 1975 97 EP MM LILY 1975-09-20 03:00:00 TS 20.2415 -117.699 main 763 756 P________PP___ EP121975 20.2421 -117.693 HU 72 1 20.2421 -117.693 TC 72 20.2392 -117.726 4 70 14 291
1975260N16256 1975 97 EP MM LILY 1975-09-20 06:00:00 TS 20.4984 -118.412 75 hurdat_epa main 796 796 O________OP___ hurdat_epa EP121975 20.5000 -118.400 HU 75 1 20.5000 -118.400 TC 75 20.4919 -118.458 4 70 15 290
1975260N16256 1975 97 EP MM LILY 1975-09-20 09:00:00 TS 20.7496 -119.157 main 851 844 P________PP___ EP121975 20.7499 -119.150 HU 72 1 20.7499 -119.150 TC 72 20.7486 -119.185 4 70 15 290
1975260N16256 1975 97 EP MM LILY 1975-09-20 12:00:00 TS 21.0000 -119.900 70 hurdat_epa main 889 889 O________OO___ hurdat_epa EP121975 21.0000 -119.900 HU 70 1 21.0000 -119.900 TC 70 21.0000 -119.900 4 70 14 290
1975260N16256 1975 97 EP MM LILY 1975-09-20 15:00:00 TS 21.2504 -120.613 main 910 910 P________PP___ EP121975 21.2572 -120.615 HU 65 1 21.2572 -120.615 TC 65 21.2233 -120.602 4 66 14 291
1975260N16256 1975 97 EP MM LILY 1975-09-20 18:00:00 TS 21.4883 -121.298 60 hurdat_epa main 940 940 O________OP___ hurdat_epa EP121975 21.5000 -121.300 TS 60 0 21.5000 -121.300 TC 60 21.4416 -121.289 4 62 13 289
1975260N16256 1975 97 EP MM LILY 1975-09-20 21:00:00 TS 21.6925 -121.957 main 973 973 P________PP___ EP121975 21.6997 -121.958 TS 57 0 21.6997 -121.958 TC 57 21.6640 -121.956 4 58 13 289
1975260N16256 1975 97 EP MM LILY 1975-09-21 00:00:00 TS 21.9000 -122.600 55 hurdat_epa main 1003 1003 O________OO___ hurdat_epa EP121975 21.9000 -122.600 TS 55 0 21.9000 -122.600 TC 55 21.9000 -122.600 2 55 13 290
1975260N16256 1975 97 EP MM LILY 1975-09-21 03:00:00 TS 22.1392 -123.256 main 1044 1037 P________PP___ EP121975 22.1349 -123.265 TS 52 0 22.1349 -123.265 TC 52 22.1562 -123.221 2 51 13 293
1975260N16256 1975 97 EP MM LILY 1975-09-21 06:00:00 TS 22.4046 -123.888 50 hurdat_epa main 1073 1073 O________OP___ hurdat_epa EP121975 22.4000 -123.900 TS 50 0 22.4000 -123.900 TC 50 22.4290 -123.823 2 47 13 298
1975260N16256 1975 97 EP MM LILY 1975-09-21 09:00:00 TS 22.7412 -124.472 main 1105 1099 P________PP___ EP121975 22.7448 -124.480 TS 45 0 22.7448 -124.480 TC 45 22.7124 -124.414 2 43 12 300
1975260N16256 1975 97 EP MM LILY 1975-09-21 12:00:00 TS 23.0000 -125.000 40 hurdat_epa main 1132 1132 O________OO___ hurdat_epa EP121975 23.0000 -125.000 TS 40 0 23.0000 -125.000 TC 40 23.0000 -125.000 2 40 10 289
1975260N16256 1975 97 EP MM LILY 1975-09-21 15:00:00 TS 23.0549 -125.488 main 1171 1171 P________P____ EP121975 23.0549 -125.488 TS 32 -1 23.0549 -125.488 TC 32 2 8 263
1975260N16256 1975 97 EP MM LILY 1975-09-21 18:00:00 ET 22.9000 -125.900 25 hurdat_epa main 1218 1218 O________O____ hurdat_epa EP121975 22.9000 -125.900 ET 25 -4 22.9000 -125.900 25 2 8 234
1975260N16256 1975 97 EP MM LILY 1975-09-21 21:00:00 ET 22.5526 -126.225 main 1261 1261 P________P____ EP121975 22.5526 -126.225 ET 25 -4 22.5526 -126.225 25 2 10 215
1975260N16256 1975 97 EP MM LILY 1975-09-22 00:00:00 ET 22.1000 -126.500 25 hurdat_epa main 1316 O________O____ hurdat_epa EP121975 22.1000 -126.500 ET 25 -4 22.1000 -126.500 25 10 209

About IBTrACS Database

This database is a web-friendly format of International Best Track Archive for Climate Stewardship (IBTrACS), a global best track data archive curated by NOAA dating back to 1842.

Updated: 2021-10-27